Time;durP1;ratioP1;P1;durP2;ratioP2;P2;SDS_P1;SDS_P2;PMS_P1;PMS_P2;Temp;Humidity;BMP_temperature;BMP_pressure;BME280_temperature;BME280_humidity;BME280_pressure;Samples;Min_cycle;Max_cycle;Signal;HPM_P1;HPM_P2
2023/09/25 00:00:32;;;;;;;;;;;;;;;16.92;51.91;102099.03;4962489;28;119636;-82
2023/09/25 00:03:01;;;;;;;;;;;;;;;16.91;51.88;102113.38;4964212;28;119042;-80
2023/09/25 00:05:28;;;;;;;;;;;;;;;16.89;51.84;102109.88;4969344;28;123971;-81
2023/09/25 00:07:55;;;;;;;;;;;;;;;16.88;51.97;102108.16;4968027;28;124430;-80
2023/09/25 00:10:23;;;;;;;;;;;;;;;16.87;52.02;102111.75;4965033;28;119681;-82
2023/09/25 00:12:50;;;;;;;;;;;;;;;16.86;51.95;102118.06;4978163;28;118196;-81
2023/09/25 00:15:17;;;;;;;;;;;;;;;16.84;51.98;102116.41;4982818;28;123593;-81
2023/09/25 00:17:44;;;;;;;;;;;;;;;16.82;51.84;102108.47;4974091;28;125339;-82
2023/09/25 00:20:11;;;;;;;;;;;;;;;16.81;51.97;102112.03;4969052;28;120428;-82
2023/09/25 00:22:39;;;;;;;;;;;;;;;16.78;51.93;102112.19;4972337;28;120822;-81
2023/09/25 00:25:07;;;;;;;;;;;;;;;16.76;51.85;102113.22;4962461;28;124424;-81
2023/09/25 00:27:34;;;;;;;;;;;;;;;16.72;51.98;102112.50;4963086;28;123688;-81
2023/09/25 00:30:05;;;;;;;;;;;;;;;16.69;51.96;102107.34;4954055;28;118583;-81
2023/09/25 00:32:33;;;;;;;;;;;;;;;16.68;51.91;102116.28;4960836;28;119677;-81
2023/09/25 00:35:10;;;;;;;;;;;;;;;16.63;51.95;102112.97;4961044;28;125088;-82
2023/09/25 00:37:38;;;;;;;;;;;;;;;16.60;52.10;102118.50;4957086;28;124793;-81
2023/09/25 00:40:13;;;;;;;;;;;;;;;16.57;51.82;102124.00;4969999;28;118999;-82
2023/09/25 00:42:41;;;;;;;;;;;;;;;16.53;51.91;102118.78;4965669;28;118962;-80
2023/09/25 00:45:09;;;;;;;;;;;;;;;16.49;51.83;102119.88;4966473;28;124277;-82
2023/09/25 00:47:37;;;;;;;;;;;;;;;16.45;51.95;102115.63;4966975;28;122973;-81
2023/09/25 00:50:05;;;;;;;;;;;;;;;16.43;52.03;102120.19;4965788;28;118906;-82
2023/09/25 00:52:33;;;;;;;;;;;;;;;16.41;51.92;102107.84;4964561;28;119120;-81
2023/09/25 00:55:02;;;;;;;;;;;;;;;16.37;52.12;102111.59;4963389;28;125659;-82
2023/09/25 00:57:29;;;;;;;;;;;;;;;16.33;52.08;102110.88;4963211;28;124271;-83
2023/09/25 00:59:56;;;;;;;;;;;;;;;16.29;51.83;102109.28;4962202;28;119802;-82
2023/09/25 01:02:23;;;;;;;;;;;;;;;16.27;51.81;102105.84;4961741;28;118477;-81
2023/09/25 01:04:50;;;;;;;;;;;;;;;16.24;52.05;102106.00;4953031;28;124506;-81
2023/09/25 01:07:18;;;;;;;;;;;;;;;16.22;52.15;102107.84;4947991;28;125159;-82
2023/09/25 01:10:04;;;;;;;;;;;;;;;16.20;52.12;102107.06;4976539;28;119518;-83
2023/09/25 01:12:31;;;;;;;;;;;;;;;16.18;51.86;102111.63;4960639;28;119536;-83
2023/09/25 01:14:59;;;;;;;;;;;;;;;16.14;52.09;102110.91;4962156;28;124326;-81
2023/09/25 01:17:26;;;;;;;;;;;;;;;16.13;52.10;102110.03;4968565;28;125007;-82
2023/09/25 01:19:53;;;;;;;;;;;;;;;16.11;52.13;102122.63;4968773;28;118702;-81
2023/09/25 01:22:20;;;;;;;;;;;;;;;16.09;52.07;102119.16;4968997;28;119074;-81
2023/09/25 01:24:47;;;;;;;;;;;;;;;16.08;52.18;102120.09;4938435;28;124942;-82
2023/09/25 01:27:14;;;;;;;;;;;;;;;16.05;52.03;102117.56;4951654;28;122079;-81
2023/09/25 01:29:42;;;;;;;;;;;;;;;16.05;52.18;102122.03;4968213;28;119784;-81
2023/09/25 01:32:09;;;;;;;;;;;;;;;16.02;52.02;102109.69;4959436;28;116804;-82
2023/09/25 01:34:36;;;;;;;;;;;;;;;16.00;52.14;102108.91;4962549;28;125345;-82
2023/09/25 01:37:04;;;;;;;;;;;;;;;15.97;52.17;102103.69;4964274;28;124614;-81
2023/09/25 01:39:35;;;;;;;;;;;;;;;15.98;52.06;102104.59;4968723;28;120441;-81
2023/09/25 01:42:03;;;;;;;;;;;;;;;15.97;52.06;102106.38;4948100;28;120304;-81
2023/09/25 01:44:30;;;;;;;;;;;;;;;15.97;52.19;102114.38;4982214;28;125762;-81
2023/09/25 01:46:57;;;;;;;;;;;;;;;15.93;52.08;102102.09;4967806;28;124923;-80
2023/09/25 01:49:24;;;;;;;;;;;;;;;15.91;51.93;102109.34;4970815;28;120420;-82
2023/09/25 01:51:51;;;;;;;;;;;;;;;15.89;52.11;102103.19;4967829;28;120039;-83
2023/09/25 01:54:18;;;;;;;;;;;;;;;15.86;52.20;102101.56;4969749;28;124144;-83
2023/09/25 01:56:45;;;;;;;;;;;;;;;15.85;52.03;102101.63;4978739;28;123743;-81
2023/09/25 01:59:12;;;;;;;;;;;;;;;15.84;52.17;102100.75;4966487;28;119525;-83
2023/09/25 02:01:39;;;;;;;;;;;;;;;15.82;52.24;102099.94;4964637;28;119434;-81
2023/09/25 02:04:07;;;;;;;;;;;;;;;15.81;52.11;102108.06;4967607;28;124627;-81
2023/09/25 02:06:34;;;;;;;;;;;;;;;15.80;52.12;102106.31;4969688;28;123684;-83
2023/09/25 02:09:02;;;;;;;;;;;;;;;15.76;52.09;102111.81;4962729;28;119495;-82
2023/09/25 02:11:29;;;;;;;;;;;;;;;15.75;52.28;102104.72;4968083;28;118319;-82
2023/09/25 02:13:56;;;;;;;;;;;;;;;15.74;52.33;102097.63;4950855;28;125909;-81
2023/09/25 02:16:23;;;;;;;;;;;;;;;15.75;52.24;102104.72;4968511;28;126178;-82
2023/09/25 02:18:50;;;;;;;;;;;;;;;15.73;52.24;102101.25;4963710;28;120553;-80
2023/09/25 02:21:17;;;;;;;;;;;;;;;15.72;52.36;102099.47;4968175;28;119143;-81
2023/09/25 02:23:44;;;;;;;;;;;;;;;15.71;52.14;102095.09;4965110;28;124379;-83
2023/09/25 02:26:11;;;;;;;;;;;;;;;15.71;52.17;102096.91;4952827;28;124608;-81
2023/09/25 02:28:38;;;;;;;;;;;;;;;15.70;52.20;102101.34;4960125;28;119776;-81
2023/09/25 02:31:07;;;;;;;;;;;;;;;15.67;52.15;102101.53;4964545;28;118622;-81
2023/09/25 02:33:34;;;;;;;;;;;;;;;15.67;52.16;102090.84;4965522;28;123948;-81
2023/09/25 02:36:05;;;;;;;;;;;;;;;15.67;52.19;102090.84;4952578;28;125027;-82
2023/09/25 02:38:32;;;;;;;;;;;;;;;15.68;52.26;102091.69;4967930;28;119484;-81
2023/09/25 02:41:00;;;;;;;;;;;;;;;15.66;52.29;102088.22;4942852;28;119907;-81
2023/09/25 02:43:27;;;;;;;;;;;;;;;15.65;52.32;102095.38;4966094;28;124639;-81
2023/09/25 02:45:54;;;;;;;;;;;;;;;15.64;52.28;102082.94;4962829;28;123871;-81
2023/09/25 02:48:21;;;;;;;;;;;;;;;15.64;52.22;102084.75;4964689;28;120050;-82
2023/09/25 02:50:48;;;;;;;;;;;;;;;15.63;52.31;102094.56;4962314;28;119361;-81
2023/09/25 02:53:18;;;;;;;;;;;;;;;15.63;52.39;102089.22;4960507;28;124463;-81
2023/09/25 02:55:49;;;;;;;;;;;;;;;15.62;52.33;102092.84;4971362;28;124726;-83
2023/09/25 02:58:16;;;;;;;;;;;;;;;15.61;52.19;102096.44;4963786;28;119312;-81
2023/09/25 03:00:45;;;;;;;;;;;;;;;15.61;52.26;102104.44;4969502;28;118549;-83
2023/09/25 03:03:12;;;;;;;;;;;;;;;15.61;52.17;102096.44;4971833;28;122404;-81
2023/09/25 03:05:39;;;;;;;;;;;;;;;15.59;52.19;102098.31;4962948;28;124707;-81
2023/09/25 03:08:06;;;;;;;;;;;;;;;15.60;52.32;102105.41;4946731;28;120430;-82
2023/09/25 03:10:34;;;;;;;;;;;;;;;15.60;52.37;102094.72;4968701;28;119474;-83
2023/09/25 03:13:01;;;;;;;;;;;;;;;15.60;52.41;102100.06;4959850;28;124381;-81
2023/09/25 03:15:28;;;;;;;;;;;;;;;15.60;52.32;102097.38;4962498;28;125262;-81
2023/09/25 03:17:55;;;;;;;;;;;;;;;15.60;52.32;102097.38;4960102;28;118631;-81
2023/09/25 03:20:26;;;;;;;;;;;;;;;15.60;52.28;102094.72;4960898;28;117744;-81
2023/09/25 03:22:54;;;;;;;;;;;;;;;15.60;52.29;102096.53;4969474;28;123649;-82
2023/09/25 03:25:22;;;;;;;;;;;;;;;15.60;52.25;102097.38;4961886;28;125334;-81
2023/09/25 03:27:49;;;;;;;;;;;;;;;15.60;52.28;102094.72;4967224;28;120263;-83
2023/09/25 03:30:16;;;;;;;;;;;;;;;15.59;52.24;102090.31;4968665;28;119377;-81
2023/09/25 03:32:44;;;;;;;;;;;;;;;15.60;52.27;102094.72;4960264;28;123151;-83
2023/09/25 03:35:11;;;;;;;;;;;;;;;15.60;52.39;102091.19;4966498;28;123658;-82
2023/09/25 03:37:38;;;;;;;;;;;;;;;15.58;52.37;102096.59;4950583;28;122236;-81
2023/09/25 03:40:09;;;;;;;;;;;;;;;15.56;52.36;102090.47;4968124;28;119713;-82
2023/09/25 03:42:36;;;;;;;;;;;;;;;15.55;52.35;102083.38;4964789;28;124231;-81
2023/09/25 03:45:04;;;;;;;;;;;;;;;15.53;52.35;102088.78;4963367;28;123509;-81
2023/09/25 03:47:30;;;;;;;;;;;;;;;15.52;52.23;102092.41;4968755;28;119063;-81
2023/09/25 03:49:58;;;;;;;;;;;;;;;15.53;52.40;102098.59;4958926;28;119990;-81
2023/09/25 03:52:25;;;;;;;;;;;;;;;15.50;52.26;102098.72;4957750;28;122892;-81
2023/09/25 03:54:52;;;;;;;;;;;;;;;15.50;52.27;102104.06;4960283;28;123573;-81
2023/09/25 03:57:19;;;;;;;;;;;;;;;15.50;52.50;102098.72;4972790;28;120761;-82
2023/09/25 03:59:46;;;;;;;;;;;;;;;15.49;52.30;102102.34;4950663;28;119807;-81
2023/09/25 04:02:13;;;;;;;;;;;;;;;15.48;52.46;102100.59;4968102;28;124434;-82
2023/09/25 04:04:40;;;;;;;;;;;;;;;15.48;52.40;102105.94;4965490;28;123343;-81
2023/09/25 04:07:07;;;;;;;;;;;;;;;15.48;52.39;102105.94;4968294;28;118869;-82
2023/09/25 04:09:34;;;;;;;;;;;;;;;15.46;52.49;102108.69;4969845;28;117907;-83
2023/09/25 04:12:01;;;;;;;;;;;;;;;15.47;52.50;102104.22;4967562;28;123908;-81
2023/09/25 04:14:31;;;;;;;;;;;;;;;15.47;52.44;102106.91;4965627;28;124047;-84
2023/09/25 04:16:58;;;;;;;;;;;;;;;15.48;52.51;102103.28;4955127;28;120610;-82
2023/09/25 04:19:25;;;;;;;;;;;;;;;15.48;52.46;102100.59;4968171;28;117856;-81
2023/09/25 04:21:52;;;;;;;;;;;;;;;15.49;52.36;102092.53;4965192;28;124574;-83
2023/09/25 04:24:19;;;;;;;;;;;;;;;15.49;52.39;102097.00;4966993;28;123832;-81
2023/09/25 04:26:48;;;;;;;;;;;;;;;15.50;52.50;102093.38;4966275;28;120577;-81
2023/09/25 04:29:17;;;;;;;;;;;;;;;15.50;52.48;102104.97;4948667;28;118090;-82
2023/09/25 04:31:46;;;;;;;;;;;;;;;15.52;52.54;102104.88;4965101;28;125652;-81
2023/09/25 04:34:13;;;;;;;;;;;;;;;15.52;52.53;102096.84;4947858;28;123441;-81
2023/09/25 04:36:40;;;;;;;;;;;;;;;15.54;52.49;102108.38;4960930;28;121054;-84
2023/09/25 04:39:10;;;;;;;;;;;;;;;15.55;52.48;102107.41;4966108;28;118776;-83
2023/09/25 04:41:37;;;;;;;;;;;;;;;15.56;52.39;102103.81;4966486;28;125598;-81
2023/09/25 04:44:04;;;;;;;;;;;;;;;15.57;52.49;102105.53;4965443;28;123749;-83
2023/09/25 04:46:31;;;;;;;;;;;;;;;15.58;52.54;102101.94;4947693;28;120173;-82
2023/09/25 04:49:00;;;;;;;;;;;;;;;15.59;52.50;102103.66;4960045;28;119162;-84
2023/09/25 04:51:27;;;;;;;;;;;;;;;15.60;52.47;102109.88;4951710;28;125130;-81
2023/09/25 04:53:54;;;;;;;;;;;;;;;15.61;52.55;102114.28;4969545;28;124076;-81
2023/09/25 04:56:21;;;;;;;;;;;;;;;15.62;52.50;102114.19;4963746;28;119755;-83
2023/09/25 04:58:48;;;;;;;;;;;;;;;15.62;52.38;102114.19;4969554;28;118676;-83
2023/09/25 05:01:16;;;;;;;;;;;;;;;15.63;52.59;102110.59;4967980;28;125492;-82
2023/09/25 05:03:42;;;;;;;;;;;;;;;15.63;52.47;102110.59;4968660;28;124355;-81
2023/09/25 05:06:11;;;;;;;;;;;;;;;15.65;52.39;102108.72;4969222;28;119864;-81
2023/09/25 05:08:38;;;;;;;;;;;;;;;15.65;52.49;102113.19;4971226;28;118582;-81
2023/09/25 05:11:05;;;;;;;;;;;;;;;15.64;52.52;102109.66;4962053;28;124217;-81
2023/09/25 05:13:34;;;;;;;;;;;;;;;15.65;52.36;102114.06;4962667;28;124672;-81
2023/09/25 05:16:01;;;;;;;;;;;;;;;15.63;52.50;102115.91;4961726;28;118524;-82
2023/09/25 05:18:29;;;;;;;;;;;;;;;15.62;52.57;102108.88;4964791;28;119851;-82
2023/09/25 05:20:57;;;;;;;;;;;;;;;15.63;52.34;102113.25;4948789;28;123184;-81
2023/09/25 05:23:24;;;;;;;;;;;;;;;15.63;52.44;102113.25;4965900;28;124982;-82
2023/09/25 05:25:52;;;;;;;;;;;;;;;15.63;52.33;102115.91;4951419;28;118931;-83
2023/09/25 05:28:19;;;;;;;;;;;;;;;15.63;52.23;102115.91;4965944;28;119385;-81
2023/09/25 05:30:47;;;;;;;;;;;;;;;15.62;52.41;102114.19;4963999;28;123948;-82
2023/09/25 05:33:14;;;;;;;;;;;;;;;15.60;52.42;102110.75;4968563;28;124199;-83
2023/09/25 05:35:41;;;;;;;;;;;;;;;15.59;52.35;102117.00;4968457;28;119778;-83
2023/09/25 05:38:08;;;;;;;;;;;;;;;15.57;52.49;102117.06;4970409;28;118846;-81
2023/09/25 05:40:35;;;;;;;;;;;;;;;15.58;52.42;102123.31;4959164;28;124320;-80
2023/09/25 05:43:02;;;;;;;;;;;;;;;15.56;52.51;102130.53;4965098;28;125044;-80
2023/09/25 05:45:29;;;;;;;;;;;;;;;15.57;52.52;102126.88;4964746;28;119855;-80
2023/09/25 05:47:56;;;;;;;;;;;;;;;15.57;52.42;102126.88;4960732;28;118696;-80
2023/09/25 05:50:26;;;;;;;;;;;;;;;15.57;52.45;102132.22;4959686;28;124568;-82
2023/09/25 05:52:54;;;;;;;;;;;;;;;15.58;52.36;102128.63;4968074;28;125233;-80
2023/09/25 05:55:22;;;;;;;;;;;;;;;15.57;52.60;102122.41;4980535;28;120060;-81
2023/09/25 05:57:49;;;;;;;;;;;;;;;15.58;52.56;102128.63;4968010;28;118534;-80
2023/09/25 06:00:18;;;;;;;;;;;;;;;15.60;52.41;102132.09;4964606;28;124085;-80
2023/09/25 06:02:46;;;;;;;;;;;;;;;15.60;52.55;102132.09;4963111;28;123434;-80
2023/09/25 06:05:13;;;;;;;;;;;;;;;15.62;52.53;102130.22;4968131;28;121019;-80
2023/09/25 06:07:40;;;;;;;;;;;;;;;15.63;52.58;102139.97;4953353;28;119027;-81
2023/09/25 06:10:08;;;;;;;;;;;;;;;15.65;52.52;102140.78;4970635;28;124491;-81
2023/09/25 06:12:35;;;;;;;;;;;;;;;15.67;52.58;102144.25;4950160;28;123230;-81
2023/09/25 06:15:05;;;;;;;;;;;;;;;15.70;52.72;102144.09;4967839;28;119385;-80
2023/09/25 06:17:32;;;;;;;;;;;;;;;15.73;52.63;102144.00;4962314;28;118930;-81
2023/09/25 06:19:59;;;;;;;;;;;;;;;15.75;52.59;102144.78;4963380;28;123387;-80
2023/09/25 06:22:26;;;;;;;;;;;;;;;15.77;52.40;102150.91;4949944;28;124923;-82
2023/09/25 06:24:53;;;;;;;;;;;;;;;15.81;52.52;102150.78;4954691;28;119459;-81
2023/09/25 06:27:20;;;;;;;;;;;;;;;15.83;52.63;102149.78;4950546;28;118178;-83
2023/09/25 06:29:47;;;;;;;;;;;;;;;15.87;52.57;102145.16;4952083;28;124727;-81
2023/09/25 06:32:14;;;;;;;;;;;;;;;15.90;52.73;102145.03;4955377;28;126510;-81
2023/09/25 06:34:41;;;;;;;;;;;;;;;15.95;52.82;102153.66;4970929;28;118644;-81
2023/09/25 06:37:08;;;;;;;;;;;;;;;16.01;52.73;102153.41;4972536;28;119401;-81
2023/09/25 06:39:35;;;;;;;;;;;;;;;16.06;52.84;102150.50;4970048;28;124511;-80
2023/09/25 06:42:03;;;;;;;;;;;;;;;16.10;52.80;102147.59;4967595;28;123735;-81
2023/09/25 06:44:30;;;;;;;;;;;;;;;16.15;52.64;102145.59;4965927;28;119502;-80
2023/09/25 06:46:57;;;;;;;;;;;;;;;16.23;52.81;102147.03;4961044;28;119707;-82
2023/09/25 06:49:24;;;;;;;;;;;;;;;16.31;52.89;102139.50;4940727;28;123513;-80
2023/09/25 06:51:51;;;;;;;;;;;;;;;16.41;52.81;102146.16;4966611;28;125009;-81
2023/09/25 06:54:18;;;;;;;;;;;;;;;16.51;52.66;102142.06;4968744;28;120995;-81
2023/09/25 06:56:45;;;;;;;;;;;;;;;16.61;52.67;102146.97;4968640;28;119650;-81
2023/09/25 06:59:12;;;;;;;;;;;;;;;16.71;52.80;102142.91;4954925;28;124093;-80
2023/09/25 07:01:39;;;;;;;;;;;;;;;16.78;52.62;102141.63;4956348;28;123969;-80
2023/09/25 07:04:07;;;;;;;;;;;;;;;16.86;52.64;102142.16;4968155;28;120336;-80
2023/09/25 07:06:35;;;;;;;;;;;;;;;16.97;52.68;102148.75;4969442;28;117948;-80
2023/09/25 07:09:03;;;;;;;;;;;;;;;17.06;52.81;102149.16;4966972;28;123961;-80
2023/09/25 07:11:30;;;;;;;;;;;;;;;17.15;52.68;102147.81;4969261;28;124992;-80
2023/09/25 07:13:57;;;;;;;;;;;;;;;17.24;52.67;102141.13;4968975;28;119480;-82
2023/09/25 07:16:24;;;;;;;;;;;;;;;17.34;52.68;102152.22;4961986;28;118756;-80
2023/09/25 07:18:51;;;;;;;;;;;;;;;17.43;52.68;102146.38;4969238;28;123739;-81
2023/09/25 07:21:19;;;;;;;;;;;;;;;17.55;52.98;102151.06;4961679;28;124041;-82
2023/09/25 07:23:47;;;;;;;;;;;;;;;17.68;52.64;102146.78;4968999;28;120044;-80
2023/09/25 07:26:15;;;;;;;;;;;;;;;17.82;52.69;102147.84;4973061;28;118279;-80
2023/09/25 07:28:45;;;;;;;;;;;;;;;17.96;52.89;102147.13;4973598;28;124190;-80
2023/09/25 07:31:17;;;;;;;;;;;;;;;18.11;52.91;102140.03;4969090;28;123119;-80
2023/09/25 07:33:44;;;;;;;;;;;;;;;18.26;52.86;102139.19;4969096;28;120254;-81
2023/09/25 07:36:11;;;;;;;;;;;;;;;18.41;52.58;102140.97;4979068;28;117839;-80
2023/09/25 07:38:38;;;;;;;;;;;;;;;18.53;52.69;102143.91;4969140;28;124565;-80
2023/09/25 07:41:08;;;;;;;;;;;;;;;18.66;52.63;102144.91;4968976;28;124184;-80
2023/09/25 07:43:35;;;;;;;;;;;;;;;18.81;52.69;102148.56;4967559;28;121530;-80
2023/09/25 07:46:21;;;;;;;;;;;;;;;18.97;52.53;102148.53;4966001;28;119060;-80
2023/09/25 07:48:48;;;;;;;;;;;;;;;19.06;52.39;102138.09;4966753;28;126192;-80
2023/09/25 07:51:17;;;;;;;;;;;;;;;19.19;52.47;102148.06;4961839;28;123664;-80
2023/09/25 07:53:44;;;;;;;;;;;;;;;19.31;52.29;102138.41;4968006;28;119948;-80
2023/09/25 07:56:12;;;;;;;;;;;;;;;19.40;52.29;102141.41;4969042;28;118143;-81
2023/09/25 07:58:39;;;;;;;;;;;;;;;19.51;52.16;102143.41;4967883;28;123718;-80
2023/09/25 08:01:10;;;;;;;;;;;;;;;19.60;52.18;102132.09;4968195;28;124324;-80
2023/09/25 08:03:37;;;;;;;;;;;;;;;19.69;52.17;102140.56;4976676;28;119903;-80
2023/09/25 08:06:05;;;;;;;;;;;;;;;19.77;51.98;102143.66;4968634;28;118293;-80
2023/09/25 08:08:33;;;;;;;;;;;;;;;19.84;52.03;102142.31;4969716;28;125363;-80
2023/09/25 08:11:01;;;;;;;;;;;;;;;19.92;51.99;102147.19;4969571;28;124201;-80
2023/09/25 08:13:29;;;;;;;;;;;;;;;20.02;51.97;102143.81;4959092;28;119048;-80
2023/09/25 08:16:04;;;;;;;;;;;;;;;20.13;51.96;102128.78;4969788;28;118813;-80
2023/09/25 08:18:31;;;;;;;;;;;;;;;20.22;51.92;102138.97;4965731;28;124194;-80
2023/09/25 08:20:59;;;;;;;;;;;;;;;20.32;51.89;102134.69;4956924;28;123565;-80
2023/09/25 08:23:27;;;;;;;;;;;;;;;20.40;51.83;102137.75;4969454;28;119507;-80
2023/09/25 08:25:54;;;;;;;;;;;;;;;20.48;51.64;102136.41;4964299;28;119852;-80
2023/09/25 08:28:21;;;;;;;;;;;;;;;20.52;51.60;102140.59;4968375;28;123170;-80
2023/09/25 08:30:48;;;;;;;;;;;;;;;20.57;51.42;102144.72;4971678;28;124778;-79
2023/09/25 08:33:15;;;;;;;;;;;;;;;20.62;51.53;102147.13;4961423;28;121570;-79
2023/09/25 08:35:43;;;;;;;;;;;;;;;20.67;51.50;102144.13;4968698;28;121209;-79
2023/09/25 08:38:10;;;;;;;;;;;;;;;20.70;51.49;102146.59;4967794;28;124399;-79
2023/09/25 08:40:40;;;;;;;;;;;;;;;20.73;51.45;102144.56;4969652;28;124549;-80
2023/09/25 08:43:08;;;;;;;;;;;;;;;20.76;51.48;102138.13;4969480;28;119101;-80
2023/09/25 08:45:48;;;;;;;;;;;;;;;20.80;51.39;102137.81;4970894;28;119652;-81
2023/09/25 08:48:16;;;;;;;;;;;;;;;20.83;51.48;102130.50;4961262;28;123474;-81
2023/09/25 08:50:44;;;;;;;;;;;;;;;20.87;51.33;102129.31;4967519;28;124099;-80
2023/09/25 08:53:11;;;;;;;;;;;;;;;20.93;51.33;102128.91;4958726;28;119623;-81
2023/09/25 08:55:39;;;;;;;;;;;;;;;21.01;51.35;102131.94;4952172;28;118057;-79
2023/09/25 08:58:09;;;;;;;;;;;;;;;21.09;51.41;102129.56;4948055;28;124005;-79
2023/09/25 09:00:37;;;;;;;;;;;;;;;21.16;51.32;102132.69;4952029;28;124173;-80
2023/09/25 09:03:05;;;;;;;;;;;;;;;21.21;51.26;102127.88;4956564;28;118814;-78
2023/09/25 09:05:32;;;;;;;;;;;;;;;21.27;51.22;102131.97;4937691;28;118767;-78
2023/09/25 09:08:00;;;;;;;;;;;;;;;21.32;51.20;102124.41;4963875;28;126084;-78
2023/09/25 09:10:31;;;;;;;;;;;;;;;21.37;51.07;102122.25;4961389;28;123441;-78
2023/09/25 09:12:58;;;;;;;;;;;;;;;21.41;51.01;102126.44;4964784;28;119621;-78
2023/09/25 09:15:30;;;;;;;;;;;;;;;21.44;50.90;102117.31;4965275;28;118922;-78
2023/09/25 09:17:57;;;;;;;;;;;;;;;21.47;51.05;102123.34;4967993;28;125013;-78
2023/09/25 09:20:36;;;;;;;;;;;;;;;21.54;51.11;102119.25;4966120;28;124155;-78
2023/09/25 09:23:03;;;;;;;;;;;;;;;21.62;51.03;102120.53;4960936;28;121022;-78
2023/09/25 09:25:31;;;;;;;;;;;;;;;21.68;51.04;102114.69;4966684;28;119590;-78
2023/09/25 09:27:59;;;;;;;;;;;;;;;21.75;50.90;102113.28;4966789;28;124355;-78
2023/09/25 09:30:26;;;;;;;;;;;;;;;21.83;51.04;102113.63;4965417;28;124483;-78
2023/09/25 09:32:54;;;;;;;;;;;;;;;21.92;51.04;102115.59;4966882;28;120118;-78
2023/09/25 09:35:25;;;;;;;;;;;;;;;22.01;51.06;102105.13;4968764;28;118800;-77
2023/09/25 09:37:52;;;;;;;;;;;;;;;22.09;50.88;102108.13;4970897;28;125032;-78
2023/09/25 09:40:24;;;;;;;;;;;;;;;22.16;50.80;102104.00;4961886;28;123851;-79
2023/09/25 09:42:52;;;;;;;;;;;;;;;22.22;50.82;102111.63;4961073;28;119315;-79
2023/09/25 09:45:19;;;;;;;;;;;;;;;22.27;50.66;102112.19;4966454;28;118771;-78
2023/09/25 09:47:47;;;;;;;;;;;;;;;22.32;50.78;102115.41;4964579;28;124055;-79
2023/09/25 09:50:18;;;;;;;;;;;;;;;22.40;50.93;102119.38;4948949;28;123063;-79
2023/09/25 09:52:45;;;;;;;;;;;;;;;22.49;50.91;102121.38;4959832;28;119332;-79
2023/09/25 09:55:14;;;;;;;;;;;;;;;22.58;50.80;102120.69;4969323;28;118858;-79
2023/09/25 09:57:41;;;;;;;;;;;;;;;22.65;50.76;102116.53;4970460;28;125302;-79
2023/09/25 10:00:09;;;;;;;;;;;;;;;22.71;50.71;102116.06;4963252;28;123086;-79
2023/09/25 10:02:39;;;;;;;;;;;;;;;22.77;50.73;102124.69;4968465;28;120260;-79
2023/09/25 10:05:10;;;;;;;;;;;;;;;22.84;50.68;102123.25;4970084;28;118473;-78
2023/09/25 10:07:57;;;;;;;;;;;;;;;22.91;50.62;102116.38;4964696;28;124883;-80
2023/09/25 10:10:24;;;;;;;;;;;;;;;22.96;50.42;102124.97;4967572;28;123514;-79
2023/09/25 10:12:56;;;;;;;;;;;;;;;23.00;50.35;102121.09;4966548;28;120022;-80
2023/09/25 10:15:27;;;;;;;;;;;;;;;23.05;50.27;102132.41;4960877;28;121008;-78
2023/09/25 10:17:56;;;;;;;;;;;;;;;23.11;50.37;102131.06;4970968;28;124245;-78
2023/09/25 10:20:30;;;;;;;;;;;;;;;23.16;50.32;102128.88;4976650;28;124834;-78
2023/09/25 10:22:58;;;;;;;;;;;;;;;23.22;50.45;102127.53;4959862;28;119125;-79
2023/09/25 10:25:26;;;;;;;;;;;;;;;23.28;50.35;102135.16;4956215;28;118916;-78
2023/09/25 10:27:53;;;;;;;;;;;;;;;23.32;50.05;102125.84;4961453;28;123581;-78
2023/09/25 10:30:22;;;;;;;;;;;;;;;23.37;50.16;102118.22;4965801;28;123937;-78
2023/09/25 10:32:50;;;;;;;;;;;;;;;23.43;50.16;102128.56;4969095;28;120815;-79
2023/09/25 10:35:36;;;;;;;;;;;;;;;23.49;50.19;102117.25;4967529;28;118801;-78
2023/09/25 10:38:06;;;;;;;;;;;;;;;23.56;50.10;102111.34;4957343;28;124169;-78
2023/09/25 10:40:54;;;;;;;;;;;;;;;23.66;50.31;102106.94;4976025;28;123586;-79
2023/09/25 10:43:22;;;;;;;;;;;;;;;23.74;50.18;102109.88;4968572;28;119498;-79
2023/09/25 10:45:50;;;;;;;;;;;;;;;23.81;50.00;102108.41;4943057;28;119112;-78
2023/09/25 10:48:17;;;;;;;;;;;;;;;23.84;50.20;102105.44;4965288;28;124080;-78
2023/09/25 10:50:45;;;;;;;;;;;;;;;23.90;50.16;102110.38;4965127;28;123638;-78
2023/09/25 10:53:13;;;;;;;;;;;;;;;23.96;50.13;102102.72;4962248;28;119533;-79
2023/09/25 10:55:40;;;;;;;;;;;;;;;24.03;50.00;102103.94;4963961;28;118034;-78
2023/09/25 10:58:08;;;;;;;;;;;;;;;24.10;50.00;102107.88;4960048;28;124393;-78
2023/09/25 11:00:37;;;;;;;;;;;;;;;24.17;50.11;102106.38;4981534;28;123810;-78
2023/09/25 11:03:05;;;;;;;;;;;;;;;24.26;50.21;102100.19;4970651;28;119668;-79
2023/09/25 11:05:34;;;;;;;;;;;;;;;24.38;50.09;102105.59;4965866;28;120975;-79
2023/09/25 11:08:03;;;;;;;;;;;;;;;24.48;49.87;102103.81;4961262;28;124455;-78
2023/09/25 11:10:36;;;;;;;;;;;;;;;24.57;50.08;102103.06;4958886;28;124250;-78
2023/09/25 11:13:03;;;;;;;;;;;;;;;24.59;49.69;102092.94;4961000;28;119587;-77
2023/09/25 11:15:37;;;;;;;;;;;;;;;24.66;49.90;102080.59;4965411;28;118444;-78
2023/09/25 11:18:08;;;;;;;;;;;;;;;24.73;49.63;102090.91;4962781;28;124117;-77
2023/09/25 11:20:37;;;;;;;;;;;;;;;24.79;49.68;102090.38;4965273;28;124372;-78
2023/09/25 11:23:08;;;;;;;;;;;;;;;24.86;49.84;102102.41;4967202;28;119221;-78
2023/09/25 11:25:47;;;;;;;;;;;;;;;24.93;49.63;102109.03;4960318;28;119377;-78
2023/09/25 11:28:16;;;;;;;;;;;;;;;25.01;49.46;102111.94;4966627;28;125306;-78
2023/09/25 11:30:46;;;;;;;;;;;;;;;25.08;49.52;102114.13;4965227;28;124992;-78
2023/09/25 11:33:22;;;;;;;;;;;;;;;25.13;49.44;102114.56;4967153;28;119242;-78
2023/09/25 11:35:52;;;;;;;;;;;;;;;25.19;49.23;102111.34;4955283;28;118911;-78
2023/09/25 11:38:21;;;;;;;;;;;;;;;25.22;49.25;102111.06;4941528;28;122991;-77
2023/09/25 11:40:52;;;;;;;;;;;;;;;25.25;49.49;102105.41;4964979;28;124524;-77
2023/09/25 11:43:21;;;;;;;;;;;;;;;25.32;49.46;102109.31;4960342;28;120155;-78
2023/09/25 11:45:48;;;;;;;;;;;;;;;25.37;49.18;102112.47;4958194;28;118381;-79
2023/09/25 11:48:18;;;;;;;;;;;;;;;25.41;49.39;102113.91;4967641;28;125322;-86
2023/09/25 11:50:46;;;;;;;;;;;;;;;25.44;49.15;102113.63;4971910;28;123383;-77
2023/09/25 11:53:13;;;;;;;;;;;;;;;25.48;49.32;102118.78;4959398;28;121338;-77
2023/09/25 11:55:40;;;;;;;;;;;;;;;25.55;49.20;102111.84;4965323;28;119436;-77
2023/09/25 11:58:08;;;;;;;;;;;;;;;25.63;49.34;102112.00;4964025;28;124200;-77
2023/09/25 12:00:36;;;;;;;;;;;;;;;25.69;49.31;102111.44;4957239;28;123468;-77
2023/09/25 12:03:07;;;;;;;;;;;;;;;25.77;49.16;102114.34;4965421;28;119470;-77
2023/09/25 12:05:36;;;;;;;;;;;;;;;25.84;49.35;102117.34;4967113;28;118906;-77
2023/09/25 12:08:06;;;;;;;;;;;;;;;25.92;49.05;102120.28;4967133;28;124401;-77
2023/09/25 12:10:39;;;;;;;;;;;;;;;26.00;49.21;102120.44;4964036;28;123801;-77
2023/09/25 12:13:07;;;;;;;;;;;;;;;26.04;49.04;102118.31;4966165;28;119134;-77
2023/09/25 12:15:35;;;;;;;;;;;;;;;26.08;49.11;102117.03;4965876;28;118404;-78
2023/09/25 12:18:03;;;;;;;;;;;;;;;26.12;49.18;102123.88;4966132;28;125310;-77
2023/09/25 12:20:30;;;;;;;;;;;;;;;26.16;48.95;102114.50;4961821;28;123965;-76
2023/09/25 12:22:57;;;;;;;;;;;;;;;26.17;48.81;102120.78;4955582;28;120073;-76
2023/09/25 12:25:24;;;;;;;;;;;;;;;26.16;48.49;102130.78;4958081;28;119750;-77
2023/09/25 12:27:52;;;;;;;;;;;;;;;26.16;48.95;102128.06;4966106;28;125234;-77
2023/09/25 12:30:19;;;;;;;;;;;;;;;26.17;48.64;102127.06;4964560;28;124143;-77
2023/09/25 12:32:48;;;;;;;;;;;;;;;26.19;48.84;102138.63;4965658;28;119752;-78